sensor_id;sensor_type;location;lat;lon;timestamp;temperature;humidity
38860;DHT22;24609;48.316;16.174;2022-12-29T00:01:47;-2.40;99.90
38860;DHT22;24609;48.316;16.174;2022-12-29T00:04:14;-2.40;99.90
38860;DHT22;24609;48.316;16.174;2022-12-29T00:06:42;-2.50;99.90
38860;DHT22;24609;48.316;16.174;2022-12-29T00:09:08;-2.40;99.90
38860;DHT22;24609;48.316;16.174;2022-12-29T00:11:34;-2.30;99.90
38860;DHT22;24609;48.316;16.174;2022-12-29T00:13:59;-2.30;99.90
38860;DHT22;24609;48.316;16.174;2022-12-29T00:16:45;-2.30;99.90
38860;DHT22;24609;48.316;16.174;2022-12-29T00:19:11;-2.30;99.90
38860;DHT22;24609;48.316;16.174;2022-12-29T00:21:56;-2.40;99.90
38860;DHT22;24609;48.316;16.174;2022-12-29T00:24:41;-2.40;99.90
38860;DHT22;24609;48.316;16.174;2022-12-29T00:27:26;-2.60;99.90
38860;DHT22;24609;48.316;16.174;2022-12-29T00:30:12;-2.60;99.90
38860;DHT22;24609;48.316;16.174;2022-12-29T00:32:57;-2.70;99.90
38860;DHT22;24609;48.316;16.174;2022-12-29T00:35:53;-2.70;99.90
38860;DHT22;24609;48.316;16.174;2022-12-29T00:38:20;-2.70;99.90
38860;DHT22;24609;48.316;16.174;2022-12-29T00:41:05;-2.70;99.90
38860;DHT22;24609;48.316;16.174;2022-12-29T00:43:49;-2.70;99.90
38860;DHT22;24609;48.316;16.174;2022-12-29T00:46:31;-2.80;99.90
38860;DHT22;24609;48.316;16.174;2022-12-29T00:48:57;-2.80;99.90
38860;DHT22;24609;48.316;16.174;2022-12-29T00:51:41;-2.80;99.90
38860;DHT22;24609;48.316;16.174;2022-12-29T00:54:07;-2.80;99.90
38860;DHT22;24609;48.316;16.174;2022-12-29T00:56:33;-2.80;99.90
38860;DHT22;24609;48.316;16.174;2022-12-29T00:59:03;-2.90;99.90
38860;DHT22;24609;48.316;16.174;2022-12-29T01:01:29;-2.90;99.90
38860;DHT22;24609;48.316;16.174;2022-12-29T01:03:55;-2.90;99.90
38860;DHT22;24609;48.316;16.174;2022-12-29T01:06:21;-2.80;99.90
38860;DHT22;24609;48.316;16.174;2022-12-29T01:08:46;-2.80;99.90
38860;DHT22;24609;48.316;16.174;2022-12-29T01:11:32;-2.90;99.90
38860;DHT22;24609;48.316;16.174;2022-12-29T01:13:58;-2.90;99.90
38860;DHT22;24609;48.316;16.174;2022-12-29T01:16:23;-2.80;99.90
38860;DHT22;24609;48.316;16.174;2022-12-29T01:18:49;-2.70;99.90
38860;DHT22;24609;48.316;16.174;2022-12-29T01:21:14;-2.80;99.90
38860;DHT22;24609;48.316;16.174;2022-12-29T01:23:40;-2.90;99.90
38860;DHT22;24609;48.316;16.174;2022-12-29T01:26:13;-2.90;99.90
38860;DHT22;24609;48.316;16.174;2022-12-29T01:28:39;-2.90;99.90
38860;DHT22;24609;48.316;16.174;2022-12-29T01:31:09;-2.80;99.90
38860;DHT22;24609;48.316;16.174;2022-12-29T01:33:35;-2.80;99.90
38860;DHT22;24609;48.316;16.174;2022-12-29T01:36:04;-2.80;99.90
38860;DHT22;24609;48.316;16.174;2022-12-29T01:38:31;-2.90;99.90
38860;DHT22;24609;48.316;16.174;2022-12-29T01:40:57;-2.90;99.90
38860;DHT22;24609;48.316;16.174;2022-12-29T01:49:05;-2.90;99.90
38860;DHT22;24609;48.316;16.174;2022-12-29T01:51:46;-2.90;99.90
38860;DHT22;24609;48.316;16.174;2022-12-29T01:54:13;-2.90;99.90
38860;DHT22;24609;48.316;16.174;2022-12-29T01:56:40;-2.90;99.90
38860;DHT22;24609;48.316;16.174;2022-12-29T01:59:10;-3.00;99.90
38860;DHT22;24609;48.316;16.174;2022-12-29T02:01:37;-3.00;99.90
38860;DHT22;24609;48.316;16.174;2022-12-29T02:04:03;-3.10;99.90
38860;DHT22;24609;48.316;16.174;2022-12-29T02:06:34;-3.10;99.90
38860;DHT22;24609;48.316;16.174;2022-12-29T02:09:02;-3.00;99.90
38860;DHT22;24609;48.316;16.174;2022-12-29T02:11:29;-2.90;99.90
38860;DHT22;24609;48.316;16.174;2022-12-29T02:13:55;-2.90;99.90
38860;DHT22;24609;48.316;16.174;2022-12-29T02:26:00;-3.10;99.90
38860;DHT22;24609;48.316;16.174;2022-12-29T02:33:55;-2.90;99.90
38860;DHT22;24609;48.316;16.174;2022-12-29T02:36:36;-2.90;99.90
38860;DHT22;24609;48.316;16.174;2022-12-29T02:42:16;-3.00;99.90
38860;DHT22;24609;48.316;16.174;2022-12-29T02:44:56;-3.00;99.90
38860;DHT22;24609;48.316;16.174;2022-12-29T02:50:34;-3.00;99.90
38860;DHT22;24609;48.316;16.174;2022-12-29T02:52:57;-3.00;99.90
38860;DHT22;24609;48.316;16.174;2022-12-29T02:55:23;-3.00;99.90
38860;DHT22;24609;48.316;16.174;2022-12-29T02:58:13;-3.00;99.90
38860;DHT22;24609;48.316;16.174;2022-12-29T03:11:24;-2.90;99.90
38860;DHT22;24609;48.316;16.174;2022-12-29T03:17:41;-2.90;99.90
38860;DHT22;24609;48.316;16.174;2022-12-29T03:20:11;-2.80;99.90
38860;DHT22;24609;48.316;16.174;2022-12-29T03:22:42;-2.80;99.90
38860;DHT22;24609;48.316;16.174;2022-12-29T03:25:47;-2.80;99.90
38860;DHT22;24609;48.316;16.174;2022-12-29T03:28:26;-2.90;99.90
38860;DHT22;24609;48.316;16.174;2022-12-29T03:30:54;-2.90;99.90
38860;DHT22;24609;48.316;16.174;2022-12-29T03:33:24;-2.90;99.90
38860;DHT22;24609;48.316;16.174;2022-12-29T03:35:54;-2.90;99.90
38860;DHT22;24609;48.316;16.174;2022-12-29T03:38:45;-2.90;99.90
38860;DHT22;24609;48.316;16.174;2022-12-29T03:41:16;-2.80;99.90
38860;DHT22;24609;48.316;16.174;2022-12-29T03:43:43;-2.80;99.90
38860;DHT22;24609;48.316;16.174;2022-12-29T03:46:08;-2.80;99.90
38860;DHT22;24609;48.316;16.174;2022-12-29T03:48:34;-2.80;99.90
38860;DHT22;24609;48.316;16.174;2022-12-29T03:51:00;-2.80;99.90
38860;DHT22;24609;48.316;16.174;2022-12-29T03:53:25;-2.80;99.90
38860;DHT22;24609;48.316;16.174;2022-12-29T03:55:51;-2.90;99.90
38860;DHT22;24609;48.316;16.174;2022-12-29T03:58:16;-2.90;99.90
38860;DHT22;24609;48.316;16.174;2022-12-29T04:00:42;-2.90;99.90
38860;DHT22;24609;48.316;16.174;2022-12-29T04:03:08;-2.80;99.90
38860;DHT22;24609;48.316;16.174;2022-12-29T04:05:33;-2.80;99.90
38860;DHT22;24609;48.316;16.174;2022-12-29T04:07:59;-2.80;99.90
38860;DHT22;24609;48.316;16.174;2022-12-29T04:10:25;-2.80;99.90
38860;DHT22;24609;48.316;16.174;2022-12-29T04:12:51;-2.80;99.90
38860;DHT22;24609;48.316;16.174;2022-12-29T04:15:16;-2.90;99.90
38860;DHT22;24609;48.316;16.174;2022-12-29T04:17:42;-2.90;99.90
38860;DHT22;24609;48.316;16.174;2022-12-29T04:20:08;-2.90;99.90
38860;DHT22;24609;48.316;16.174;2022-12-29T04:23:04;-2.90;99.90
38860;DHT22;24609;48.316;16.174;2022-12-29T04:25:33;-2.90;99.90
38860;DHT22;24609;48.316;16.174;2022-12-29T04:27:59;-3.00;99.90
38860;DHT22;24609;48.316;16.174;2022-12-29T04:30:25;-3.00;99.90
38860;DHT22;24609;48.316;16.174;2022-12-29T04:32:51;-3.00;99.90
38860;DHT22;24609;48.316;16.174;2022-12-29T04:35:16;-3.10;99.90
38860;DHT22;24609;48.316;16.174;2022-12-29T04:37:42;-3.10;99.90
38860;DHT22;24609;48.316;16.174;2022-12-29T04:40:08;-3.10;99.90
38860;DHT22;24609;48.316;16.174;2022-12-29T04:42:34;-3.10;99.90
38860;DHT22;24609;48.316;16.174;2022-12-29T04:45:00;-3.20;99.90
38860;DHT22;24609;48.316;16.174;2022-12-29T04:47:25;-3.20;99.90
38860;DHT22;24609;48.316;16.174;2022-12-29T04:49:51;-3.10;99.90
38860;DHT22;24609;48.316;16.174;2022-12-29T04:52:16;-3.20;99.90
38860;DHT22;24609;48.316;16.174;2022-12-29T04:54:42;-3.20;99.90
38860;DHT22;24609;48.316;16.174;2022-12-29T04:57:08;-3.10;99.90
38860;DHT22;24609;48.316;16.174;2022-12-29T04:59:33;-3.10;99.90
38860;DHT22;24609;48.316;16.174;2022-12-29T05:01:59;-3.10;99.90
38860;DHT22;24609;48.316;16.174;2022-12-29T05:04:25;-3.00;99.90
38860;DHT22;24609;48.316;16.174;2022-12-29T05:06:50;-3.20;99.90
38860;DHT22;24609;48.316;16.174;2022-12-29T05:09:16;-3.20;99.90
38860;DHT22;24609;48.316;16.174;2022-12-29T05:11:42;-3.30;99.90
38860;DHT22;24609;48.316;16.174;2022-12-29T05:14:08;-3.30;99.90
38860;DHT22;24609;48.316;16.174;2022-12-29T05:16:33;-3.40;99.90
38860;DHT22;24609;48.316;16.174;2022-12-29T05:18:59;-3.30;99.90
38860;DHT22;24609;48.316;16.174;2022-12-29T05:21:25;-3.20;99.90
38860;DHT22;24609;48.316;16.174;2022-12-29T05:23:50;-3.20;99.90
38860;DHT22;24609;48.316;16.174;2022-12-29T05:26:16;-3.20;99.90
38860;DHT22;24609;48.316;16.174;2022-12-29T05:28:42;-3.30;99.90
38860;DHT22;24609;48.316;16.174;2022-12-29T05:31:07;-3.30;99.90
38860;DHT22;24609;48.316;16.174;2022-12-29T05:33:33;-3.30;99.90
38860;DHT22;24609;48.316;16.174;2022-12-29T05:36:04;-3.20;99.90
38860;DHT22;24609;48.316;16.174;2022-12-29T05:38:30;-3.10;99.90
38860;DHT22;24609;48.316;16.174;2022-12-29T05:40:56;-3.20;99.90
38860;DHT22;24609;48.316;16.174;2022-12-29T05:43:21;-3.30;99.90
38860;DHT22;24609;48.316;16.174;2022-12-29T05:45:50;-3.30;99.90
38860;DHT22;24609;48.316;16.174;2022-12-29T05:48:16;-3.30;99.90
38860;DHT22;24609;48.316;16.174;2022-12-29T05:50:42;-3.30;99.90
38860;DHT22;24609;48.316;16.174;2022-12-29T05:53:08;-3.30;99.90
38860;DHT22;24609;48.316;16.174;2022-12-29T05:55:34;-3.30;99.90
38860;DHT22;24609;48.316;16.174;2022-12-29T05:58:00;-3.40;99.90
38860;DHT22;24609;48.316;16.174;2022-12-29T06:00:26;-3.40;99.90
38860;DHT22;24609;48.316;16.174;2022-12-29T06:02:51;-3.50;99.90
38860;DHT22;24609;48.316;16.174;2022-12-29T06:05:17;-3.40;99.90
38860;DHT22;24609;48.316;16.174;2022-12-29T06:07:42;-3.40;99.90
38860;DHT22;24609;48.316;16.174;2022-12-29T06:10:10;-3.40;99.90
38860;DHT22;24609;48.316;16.174;2022-12-29T06:12:35;-3.30;99.90
38860;DHT22;24609;48.316;16.174;2022-12-29T06:15:01;-3.30;99.90
38860;DHT22;24609;48.316;16.174;2022-12-29T06:17:27;-3.30;99.90
38860;DHT22;24609;48.316;16.174;2022-12-29T06:19:52;-3.20;99.90
38860;DHT22;24609;48.316;16.174;2022-12-29T06:22:18;-3.30;99.90
38860;DHT22;24609;48.316;16.174;2022-12-29T06:24:44;-3.30;99.90
38860;DHT22;24609;48.316;16.174;2022-12-29T06:27:09;-3.30;99.90
38860;DHT22;24609;48.316;16.174;2022-12-29T06:29:35;-3.30;99.90
38860;DHT22;24609;48.316;16.174;2022-12-29T06:32:03;-3.30;99.90
38860;DHT22;24609;48.316;16.174;2022-12-29T06:34:28;-3.30;99.90
38860;DHT22;24609;48.316;16.174;2022-12-29T06:36:54;-3.30;99.90
38860;DHT22;24609;48.316;16.174;2022-12-29T06:39:20;-3.20;99.90
38860;DHT22;24609;48.316;16.174;2022-12-29T06:41:45;-3.20;99.90
38860;DHT22;24609;48.316;16.174;2022-12-29T06:44:11;-3.30;99.90
38860;DHT22;24609;48.316;16.174;2022-12-29T06:46:37;-3.20;99.90
38860;DHT22;24609;48.316;16.174;2022-12-29T06:49:02;-3.20;99.90
38860;DHT22;24609;48.316;16.174;2022-12-29T06:51:28;-3.30;99.90
38860;DHT22;24609;48.316;16.174;2022-12-29T06:53:53;-3.30;99.90
38860;DHT22;24609;48.316;16.174;2022-12-29T06:56:19;-3.30;99.90
38860;DHT22;24609;48.316;16.174;2022-12-29T06:58:45;-3.30;99.90
38860;DHT22;24609;48.316;16.174;2022-12-29T07:01:10;-3.30;99.90
38860;DHT22;24609;48.316;16.174;2022-12-29T07:03:36;-3.20;99.90
38860;DHT22;24609;48.316;16.174;2022-12-29T07:06:02;-3.20;99.90
38860;DHT22;24609;48.316;16.174;2022-12-29T07:08:27;-3.20;99.90
38860;DHT22;24609;48.316;16.174;2022-12-29T07:10:53;-3.20;99.90
38860;DHT22;24609;48.316;16.174;2022-12-29T07:13:19;-3.10;99.90
38860;DHT22;24609;48.316;16.174;2022-12-29T07:15:44;-3.10;99.90
38860;DHT22;24609;48.316;16.174;2022-12-29T07:18:10;-3.10;99.90
38860;DHT22;24609;48.316;16.174;2022-12-29T07:20:36;-3.00;99.90
38860;DHT22;24609;48.316;16.174;2022-12-29T07:23:02;-3.00;99.90
38860;DHT22;24609;48.316;16.174;2022-12-29T07:25:27;-3.00;99.90
38860;DHT22;24609;48.316;16.174;2022-12-29T07:27:54;-2.90;99.90
38860;DHT22;24609;48.316;16.174;2022-12-29T07:30:20;-2.90;99.90
38860;DHT22;24609;48.316;16.174;2022-12-29T07:32:46;-2.90;99.90
38860;DHT22;24609;48.316;16.174;2022-12-29T07:35:11;-2.80;99.90
38860;DHT22;24609;48.316;16.174;2022-12-29T07:37:37;-2.70;99.90
38860;DHT22;24609;48.316;16.174;2022-12-29T07:40:03;-2.80;99.90
38860;DHT22;24609;48.316;16.174;2022-12-29T07:42:30;-2.80;99.90
38860;DHT22;24609;48.316;16.174;2022-12-29T07:44:55;-2.80;99.90
38860;DHT22;24609;48.316;16.174;2022-12-29T07:47:21;-2.80;99.90
38860;DHT22;24609;48.316;16.174;2022-12-29T07:49:47;-2.80;99.90
38860;DHT22;24609;48.316;16.174;2022-12-29T07:52:12;-2.70;99.90
38860;DHT22;24609;48.316;16.174;2022-12-29T07:54:38;-2.50;99.90
38860;DHT22;24609;48.316;16.174;2022-12-29T07:57:05;-2.30;99.90
38860;DHT22;24609;48.316;16.174;2022-12-29T07:59:31;-2.30;99.90
38860;DHT22;24609;48.316;16.174;2022-12-29T08:01:56;-2.30;99.90
38860;DHT22;24609;48.316;16.174;2022-12-29T08:04:22;-2.10;99.90
38860;DHT22;24609;48.316;16.174;2022-12-29T08:06:48;-2.00;99.90
38860;DHT22;24609;48.316;16.174;2022-12-29T08:09:13;-1.80;99.90
38860;DHT22;24609;48.316;16.174;2022-12-29T08:11:39;-1.50;99.90
38860;DHT22;24609;48.316;16.174;2022-12-29T08:14:06;-1.10;99.90
38860;DHT22;24609;48.316;16.174;2022-12-29T08:16:31;-1.10;99.90
38860;DHT22;24609;48.316;16.174;2022-12-29T08:18:57;-0.70;99.90
38860;DHT22;24609;48.316;16.174;2022-12-29T08:21:24;-0.40;99.90
38860;DHT22;24609;48.316;16.174;2022-12-29T08:23:50;0.00;99.90
38860;DHT22;24609;48.316;16.174;2022-12-29T08:26:16;0.10;68.20
38860;DHT22;24609;48.316;16.174;2022-12-29T08:28:41;0.30;99.90
38860;DHT22;24609;48.316;16.174;2022-12-29T08:31:07;0.90;99.90
38860;DHT22;24609;48.316;16.174;2022-12-29T08:33:33;0.90;1.00
38860;DHT22;24609;48.316;16.174;2022-12-29T08:36:03;1.00;14.30
38860;DHT22;24609;48.316;16.174;2022-12-29T08:38:29;1.50;1.00
38860;DHT22;24609;48.316;16.174;2022-12-29T08:40:56;1.50;1.00
38860;DHT22;24609;48.316;16.174;2022-12-29T08:43:22;0.70;1.00
38860;DHT22;24609;48.316;16.174;2022-12-29T08:45:47;1.30;1.00
38860;DHT22;24609;48.316;16.174;2022-12-29T08:48:13;1.60;99.90
38860;DHT22;24609;48.316;16.174;2022-12-29T08:50:39;2.00;1.00
38860;DHT22;24609;48.316;16.174;2022-12-29T08:53:04;1.80;1.00
38860;DHT22;24609;48.316;16.174;2022-12-29T08:55:30;2.60;99.90
38860;DHT22;24609;48.316;16.174;2022-12-29T08:57:56;3.50;99.90
38860;DHT22;24609;48.316;16.174;2022-12-29T09:00:21;3.40;1.00
38860;DHT22;24609;48.316;16.174;2022-12-29T09:02:47;3.70;99.90
38860;DHT22;24609;48.316;16.174;2022-12-29T09:05:13;3.70;1.00
38860;DHT22;24609;48.316;16.174;2022-12-29T09:07:38;3.80;1.00
38860;DHT22;24609;48.316;16.174;2022-12-29T09:10:04;4.30;1.00
38860;DHT22;24609;48.316;16.174;2022-12-29T09:12:30;5.30;1.00
38860;DHT22;24609;48.316;16.174;2022-12-29T09:14:56;6.40;99.90
38860;DHT22;24609;48.316;16.174;2022-12-29T09:17:21;7.30;99.90
38860;DHT22;24609;48.316;16.174;2022-12-29T09:20:06;7.20;99.90
38860;DHT22;24609;48.316;16.174;2022-12-29T09:22:32;5.90;99.90
38860;DHT22;24609;48.316;16.174;2022-12-29T09:24:57;6.00;39.50
38860;DHT22;24609;48.316;16.174;2022-12-29T09:27:23;6.00;99.90
38860;DHT22;24609;48.316;16.174;2022-12-29T09:29:49;6.80;1.00
38860;DHT22;24609;48.316;16.174;2022-12-29T09:32:14;7.50;99.90
38860;DHT22;24609;48.316;16.174;2022-12-29T09:34:40;8.90;99.90
38860;DHT22;24609;48.316;16.174;2022-12-29T09:37:05;10.60;28.10
38860;DHT22;24609;48.316;16.174;2022-12-29T09:39:31;11.60;99.90
38860;DHT22;24609;48.316;16.174;2022-12-29T09:42:01;11.50;99.90
38860;DHT22;24609;48.316;16.174;2022-12-29T09:47:34;12.20;36.40
38860;DHT22;24609;48.316;16.174;2022-12-29T09:52:50;10.70;1.00
38860;DHT22;24609;48.316;16.174;2022-12-29T09:55:25;9.20;39.40
38860;DHT22;24609;48.316;16.174;2022-12-29T09:58:12;8.50;99.90
38860;DHT22;24609;48.316;16.174;2022-12-29T10:00:58;9.70;99.90
38860;DHT22;24609;48.316;16.174;2022-12-29T10:07:03;13.10;1.00
38860;DHT22;24609;48.316;16.174;2022-12-29T10:10:03;11.70;1.00
38860;DHT22;24609;48.316;16.174;2022-12-29T10:15:54;13.10;1.00
38860;DHT22;24609;48.316;16.174;2022-12-29T10:23:45;8.40;1.00
38860;DHT22;24609;48.316;16.174;2022-12-29T10:26:24;6.70;99.90
38860;DHT22;24609;48.316;16.174;2022-12-29T10:28:53;7.10;1.00
38860;DHT22;24609;48.316;16.174;2022-12-29T10:31:24;8.30;99.90
38860;DHT22;24609;48.316;16.174;2022-12-29T10:34:03;9.70;99.90
38860;DHT22;24609;48.316;16.174;2022-12-29T10:36:38;12.80;1.00
38860;DHT22;24609;48.316;16.174;2022-12-29T10:39:22;12.80;1.00
38860;DHT22;24609;48.316;16.174;2022-12-29T10:44:33;11.50;1.00
38860;DHT22;24609;48.316;16.174;2022-12-29T10:47:05;9.90;1.00
38860;DHT22;24609;48.316;16.174;2022-12-29T10:49:35;8.80;2.60
38860;DHT22;24609;48.316;16.174;2022-12-29T10:52:03;7.90;99.90
38860;DHT22;24609;48.316;16.174;2022-12-29T10:54:40;7.70;99.90
38860;DHT22;24609;48.316;16.174;2022-12-29T10:57:33;8.70;99.90
38860;DHT22;24609;48.316;16.174;2022-12-29T10:59:59;9.80;25.80
38860;DHT22;24609;48.316;16.174;2022-12-29T11:02:40;8.40;22.20
38860;DHT22;24609;48.316;16.174;2022-12-29T11:05:33;7.20;99.90
38860;DHT22;24609;48.316;16.174;2022-12-29T11:08:04;6.40;1.00
38860;DHT22;24609;48.316;16.174;2022-12-29T11:13:02;5.10;1.00
38860;DHT22;24609;48.316;16.174;2022-12-29T11:18:21;4.50;1.00
38860;DHT22;24609;48.316;16.174;2022-12-29T11:20:52;4.40;99.90
38860;DHT22;24609;48.316;16.174;2022-12-29T11:23:25;4.90;1.00
38860;DHT22;24609;48.316;16.174;2022-12-29T11:28:37;6.60;1.00
38860;DHT22;24609;48.316;16.174;2022-12-29T11:31:05;6.20;51.10
38860;DHT22;24609;48.316;16.174;2022-12-29T11:33:33;6.40;1.00
38860;DHT22;24609;48.316;16.174;2022-12-29T11:36:06;6.30;1.00
38860;DHT22;24609;48.316;16.174;2022-12-29T11:38:36;5.40;1.00
38860;DHT22;24609;48.316;16.174;2022-12-29T11:41:03;6.30;1.00
38860;DHT22;24609;48.316;16.174;2022-12-29T11:43:37;7.70;1.00
38860;DHT22;24609;48.316;16.174;2022-12-29T11:46:04;8.80;85.90
38860;DHT22;24609;48.316;16.174;2022-12-29T11:48:38;11.30;99.90
38860;DHT22;24609;48.316;16.174;2022-12-29T11:51:06;13.00;99.90
38860;DHT22;24609;48.316;16.174;2022-12-29T11:53:43;11.80;99.90
38860;DHT22;24609;48.316;16.174;2022-12-29T11:56:38;10.40;99.90
38860;DHT22;24609;48.316;16.174;2022-12-29T12:02:22;8.30;1.00
38860;DHT22;24609;48.316;16.174;2022-12-29T12:04:53;7.50;99.90
38860;DHT22;24609;48.316;16.174;2022-12-29T12:07:29;7.20;99.90
38860;DHT22;24609;48.316;16.174;2022-12-29T12:10:00;6.40;48.90
38860;DHT22;24609;48.316;16.174;2022-12-29T12:12:34;6.20;99.90
38860;DHT22;24609;48.316;16.174;2022-12-29T12:15:02;6.30;99.90
38860;DHT22;24609;48.316;16.174;2022-12-29T12:17:40;6.60;99.90
38860;DHT22;24609;48.316;16.174;2022-12-29T12:20:32;6.70;99.90
38860;DHT22;24609;48.316;16.174;2022-12-29T12:23:28;6.80;1.00
38860;DHT22;24609;48.316;16.174;2022-12-29T12:26:28;6.70;99.90
38860;DHT22;24609;48.316;16.174;2022-12-29T12:34:05;6.90;99.90
38860;DHT22;24609;48.316;16.174;2022-12-29T12:37:03;7.00;99.90
38860;DHT22;24609;48.316;16.174;2022-12-29T12:39:36;6.80;99.90
38860;DHT22;24609;48.316;16.174;2022-12-29T12:42:24;5.80;1.00
38860;DHT22;24609;48.316;16.174;2022-12-29T12:48:23;5.70;99.90
38860;DHT22;24609;48.316;16.174;2022-12-29T12:56:08;5.40;3.60
38860;DHT22;24609;48.316;16.174;2022-12-29T13:02:15;5.50;99.90
38860;DHT22;24609;48.316;16.174;2022-12-29T13:04:39;5.50;27.10
38860;DHT22;24609;48.316;16.174;2022-12-29T13:10:05;5.80;1.00
38860;DHT22;24609;48.316;16.174;2022-12-29T13:18:06;5.50;99.90
38860;DHT22;24609;48.316;16.174;2022-12-29T13:20:47;4.80;99.90
38860;DHT22;24609;48.316;16.174;2022-12-29T13:23:38;4.60;99.90
38860;DHT22;24609;48.316;16.174;2022-12-29T13:26:53;4.50;93.50
38860;DHT22;24609;48.316;16.174;2022-12-29T13:29:35;4.40;1.00
38860;DHT22;24609;48.316;16.174;2022-12-29T13:35:06;4.70;1.00
38860;DHT22;24609;48.316;16.174;2022-12-29T13:37:39;4.60;1.00
38860;DHT22;24609;48.316;16.174;2022-12-29T13:40:15;4.30;42.10
38860;DHT22;24609;48.316;16.174;2022-12-29T13:42:43;4.10;99.90
38860;DHT22;24609;48.316;16.174;2022-12-29T13:45:23;4.00;1.00
38860;DHT22;24609;48.316;16.174;2022-12-29T13:48:13;3.90;1.00
38860;DHT22;24609;48.316;16.174;2022-12-29T13:50:40;3.80;1.00
38860;DHT22;24609;48.316;16.174;2022-12-29T13:53:39;3.80;1.00
38860;DHT22;24609;48.316;16.174;2022-12-29T13:59:05;3.80;1.00
38860;DHT22;24609;48.316;16.174;2022-12-29T14:01:39;3.80;1.00
38860;DHT22;24609;48.316;16.174;2022-12-29T14:04:28;3.70;1.00
38860;DHT22;24609;48.316;16.174;2022-12-29T14:07:21;3.60;1.00
38860;DHT22;24609;48.316;16.174;2022-12-29T14:09:48;3.60;1.00
38860;DHT22;24609;48.316;16.174;2022-12-29T14:17:37;3.40;22.60
38860;DHT22;24609;48.316;16.174;2022-12-29T14:20:04;3.40;30.50
38860;DHT22;24609;48.316;16.174;2022-12-29T14:22:32;3.20;35.60
38860;DHT22;24609;48.316;16.174;2022-12-29T14:24:58;3.20;99.90
38860;DHT22;24609;48.316;16.174;2022-12-29T14:29:55;3.00;99.90
38860;DHT22;24609;48.316;16.174;2022-12-29T14:34:54;3.00;99.90
38860;DHT22;24609;48.316;16.174;2022-12-29T14:37:24;2.90;99.90
38860;DHT22;24609;48.316;16.174;2022-12-29T14:40:17;2.80;99.90
38860;DHT22;24609;48.316;16.174;2022-12-29T14:42:48;2.80;99.90
38860;DHT22;24609;48.316;16.174;2022-12-29T14:47:48;2.70;99.90
38860;DHT22;24609;48.316;16.174;2022-12-29T14:52:53;2.70;99.90
38860;DHT22;24609;48.316;16.174;2022-12-29T14:58:03;2.80;26.30
38860;DHT22;24609;48.316;16.174;2022-12-29T15:00:35;2.90;1.00
38860;DHT22;24609;48.316;16.174;2022-12-29T15:03:05;2.90;1.00
38860;DHT22;24609;48.316;16.174;2022-12-29T15:05:53;2.90;1.00
38860;DHT22;24609;48.316;16.174;2022-12-29T15:08:25;2.80;1.00
38860;DHT22;24609;48.316;16.174;2022-12-29T15:10:55;2.70;1.00
38860;DHT22;24609;48.316;16.174;2022-12-29T15:13:24;2.70;14.60
38860;DHT22;24609;48.316;16.174;2022-12-29T15:15:57;2.70;37.10
38860;DHT22;24609;48.316;16.174;2022-12-29T15:18:30;2.50;56.40
38860;DHT22;24609;48.316;16.174;2022-12-29T15:21:05;2.50;74.30
38860;DHT22;24609;48.316;16.174;2022-12-29T15:23:32;2.40;99.90
38860;DHT22;24609;48.316;16.174;2022-12-29T15:26:06;2.40;99.90
38860;DHT22;24609;48.316;16.174;2022-12-29T15:28:44;2.30;99.90
38860;DHT22;24609;48.316;16.174;2022-12-29T15:31:28;2.30;99.90
38860;DHT22;24609;48.316;16.174;2022-12-29T15:34:01;2.20;99.90
38860;DHT22;24609;48.316;16.174;2022-12-29T15:36:28;2.10;99.90
38860;DHT22;24609;48.316;16.174;2022-12-29T15:38:55;2.10;99.90
38860;DHT22;24609;48.316;16.174;2022-12-29T15:41:40;1.90;99.90
38860;DHT22;24609;48.316;16.174;2022-12-29T15:47:05;1.80;99.90
38860;DHT22;24609;48.316;16.174;2022-12-29T15:49:32;1.80;99.90
38860;DHT22;24609;48.316;16.174;2022-12-29T15:51:58;1.70;99.90
38860;DHT22;24609;48.316;16.174;2022-12-29T15:54:24;1.70;99.90
38860;DHT22;24609;48.316;16.174;2022-12-29T15:56:51;1.70;99.90
38860;DHT22;24609;48.316;16.174;2022-12-29T15:59:32;1.80;99.90
38860;DHT22;24609;48.316;16.174;2022-12-29T16:01:59;1.90;99.90
38860;DHT22;24609;48.316;16.174;2022-12-29T16:04:28;2.10;99.90
38860;DHT22;24609;48.316;16.174;2022-12-29T16:06:59;2.10;99.90
38860;DHT22;24609;48.316;16.174;2022-12-29T16:09:41;2.20;99.90
38860;DHT22;24609;48.316;16.174;2022-12-29T16:12:17;2.20;99.90
38860;DHT22;24609;48.316;16.174;2022-12-29T16:14:50;2.20;99.90
38860;DHT22;24609;48.316;16.174;2022-12-29T16:17:20;2.10;99.90
38860;DHT22;24609;48.316;16.174;2022-12-29T16:19:49;2.10;99.90
38860;DHT22;24609;48.316;16.174;2022-12-29T16:22:29;2.00;99.90
38860;DHT22;24609;48.316;16.174;2022-12-29T16:25:01;1.90;99.90
38860;DHT22;24609;48.316;16.174;2022-12-29T16:27:42;1.90;99.90
38860;DHT22;24609;48.316;16.174;2022-12-29T16:30:22;1.90;99.90
38860;DHT22;24609;48.316;16.174;2022-12-29T16:32:50;1.80;99.90
38860;DHT22;24609;48.316;16.174;2022-12-29T16:38:20;1.80;99.90
38860;DHT22;24609;48.316;16.174;2022-12-29T16:43:28;1.90;99.90
38860;DHT22;24609;48.316;16.174;2022-12-29T16:48:45;1.90;99.90
38860;DHT22;24609;48.316;16.174;2022-12-29T16:51:16;1.80;99.90
38860;DHT22;24609;48.316;16.174;2022-12-29T16:53:48;1.70;99.90
38860;DHT22;24609;48.316;16.174;2022-12-29T16:56:17;1.80;99.90
38860;DHT22;24609;48.316;16.174;2022-12-29T16:58:48;1.80;99.90
38860;DHT22;24609;48.316;16.174;2022-12-29T17:01:15;1.80;99.90
38860;DHT22;24609;48.316;16.174;2022-12-29T17:04:13;1.80;99.90
38860;DHT22;24609;48.316;16.174;2022-12-29T17:06:40;1.80;99.90
38860;DHT22;24609;48.316;16.174;2022-12-29T17:09:18;1.80;99.90
38860;DHT22;24609;48.316;16.174;2022-12-29T17:11:47;1.90;99.90
38860;DHT22;24609;48.316;16.174;2022-12-29T17:19:38;1.80;99.90
38860;DHT22;24609;48.316;16.174;2022-12-29T17:22:17;1.80;99.90
38860;DHT22;24609;48.316;16.174;2022-12-29T17:24:43;2.00;99.90
38860;DHT22;24609;48.316;16.174;2022-12-29T17:30:10;2.20;99.90
38860;DHT22;24609;48.316;16.174;2022-12-29T17:32:37;2.30;99.90
38860;DHT22;24609;48.316;16.174;2022-12-29T17:35:04;2.30;99.90
38860;DHT22;24609;48.316;16.174;2022-12-29T17:37:35;2.30;99.90
38860;DHT22;24609;48.316;16.174;2022-12-29T17:40:02;2.40;99.90
38860;DHT22;24609;48.316;16.174;2022-12-29T17:42:28;2.50;99.90
38860;DHT22;24609;48.316;16.174;2022-12-29T17:44:54;2.40;99.90
38860;DHT22;24609;48.316;16.174;2022-12-29T17:47:20;2.50;99.90
38860;DHT22;24609;48.316;16.174;2022-12-29T17:49:46;2.50;99.90
38860;DHT22;24609;48.316;16.174;2022-12-29T17:52:15;2.50;99.90
38860;DHT22;24609;48.316;16.174;2022-12-29T17:54:46;2.50;99.90
38860;DHT22;24609;48.316;16.174;2022-12-29T17:57:15;2.50;99.90
38860;DHT22;24609;48.316;16.174;2022-12-29T17:59:41;2.50;99.90
38860;DHT22;24609;48.316;16.174;2022-12-29T18:04:51;2.60;99.90
38860;DHT22;24609;48.316;16.174;2022-12-29T18:07:17;2.60;99.90
38860;DHT22;24609;48.316;16.174;2022-12-29T18:09:43;2.60;99.90
38860;DHT22;24609;48.316;16.174;2022-12-29T18:14:54;2.60;99.90